sensor_id;sensor_type;location;lat;lon;timestamp;P1;durP1;ratioP1;P2;durP2;ratioP2
32641;SDS011;19323;56.072;9.698;2022-07-23T00:01:24;5.03;;;2.70;;
32641;SDS011;19323;56.072;9.698;2022-07-23T00:03:53;5.05;;;2.50;;
32641;SDS011;19323;56.072;9.698;2022-07-23T00:06:21;5.47;;;2.97;;
32641;SDS011;19323;56.072;9.698;2022-07-23T00:08:49;3.90;;;2.58;;
32641;SDS011;19323;56.072;9.698;2022-07-23T00:11:15;4.80;;;2.45;;
32641;SDS011;19323;56.072;9.698;2022-07-23T00:13:42;5.78;;;2.40;;
32641;SDS011;19323;56.072;9.698;2022-07-23T00:16:09;3.30;;;2.22;;
32641;SDS011;19323;56.072;9.698;2022-07-23T00:18:35;4.07;;;2.45;;
32641;SDS011;19323;56.072;9.698;2022-07-23T00:21:02;3.53;;;2.53;;
32641;SDS011;19323;56.072;9.698;2022-07-23T00:23:29;3.08;;;1.90;;
32641;SDS011;19323;56.072;9.698;2022-07-23T00:25:57;4.63;;;2.95;;
32641;SDS011;19323;56.072;9.698;2022-07-23T00:28:23;6.90;;;2.67;;
32641;SDS011;19323;56.072;9.698;2022-07-23T00:30:50;4.10;;;1.85;;
32641;SDS011;19323;56.072;9.698;2022-07-23T00:33:17;4.65;;;2.15;;
32641;SDS011;19323;56.072;9.698;2022-07-23T00:35:43;6.28;;;2.42;;
32641;SDS011;19323;56.072;9.698;2022-07-23T00:38:10;4.10;;;2.00;;
32641;SDS011;19323;56.072;9.698;2022-07-23T00:40:37;4.75;;;1.83;;
32641;SDS011;19323;56.072;9.698;2022-07-23T00:43:05;2.40;;;1.40;;
32641;SDS011;19323;56.072;9.698;2022-07-23T00:45:31;3.22;;;1.92;;
32641;SDS011;19323;56.072;9.698;2022-07-23T00:47:59;3.72;;;1.65;;
32641;SDS011;19323;56.072;9.698;2022-07-23T00:50:26;5.45;;;1.90;;
32641;SDS011;19323;56.072;9.698;2022-07-23T00:52:52;3.15;;;1.95;;
32641;SDS011;19323;56.072;9.698;2022-07-23T00:55:19;3.25;;;1.55;;
32641;SDS011;19323;56.072;9.698;2022-07-23T00:57:46;4.47;;;1.63;;
32641;SDS011;19323;56.072;9.698;2022-07-23T01:00:14;3.00;;;1.83;;
32641;SDS011;19323;56.072;9.698;2022-07-23T01:02:41;2.17;;;1.50;;
32641;SDS011;19323;56.072;9.698;2022-07-23T01:05:08;3.45;;;1.17;;
32641;SDS011;19323;56.072;9.698;2022-07-23T01:07:35;4.97;;;1.17;;
32641;SDS011;19323;56.072;9.698;2022-07-23T01:10:03;1.85;;;1.23;;
32641;SDS011;19323;56.072;9.698;2022-07-23T01:12:31;2.63;;;1.73;;
32641;SDS011;19323;56.072;9.698;2022-07-23T01:14:59;2.25;;;1.30;;
32641;SDS011;19323;56.072;9.698;2022-07-23T01:17:26;2.35;;;1.10;;
32641;SDS011;19323;56.072;9.698;2022-07-23T01:19:53;2.65;;;1.02;;
32641;SDS011;19323;56.072;9.698;2022-07-23T01:22:19;2.05;;;1.30;;
32641;SDS011;19323;56.072;9.698;2022-07-23T01:24:46;3.38;;;1.08;;
32641;SDS011;19323;56.072;9.698;2022-07-23T01:27:13;3.45;;;1.60;;
32641;SDS011;19323;56.072;9.698;2022-07-23T01:29:39;1.90;;;1.17;;
32641;SDS011;19323;56.072;9.698;2022-07-23T01:32:06;1.60;;;1.20;;
32641;SDS011;19323;56.072;9.698;2022-07-23T01:34:33;2.28;;;1.45;;
32641;SDS011;19323;56.072;9.698;2022-07-23T01:36:59;1.75;;;1.13;;
32641;SDS011;19323;56.072;9.698;2022-07-23T01:39:26;3.00;;;1.23;;
32641;SDS011;19323;56.072;9.698;2022-07-23T01:41:53;3.35;;;1.20;;
32641;SDS011;19323;56.072;9.698;2022-07-23T01:44:19;3.13;;;0.95;;
32641;SDS011;19323;56.072;9.698;2022-07-23T01:46:46;2.25;;;1.02;;
32641;SDS011;19323;56.072;9.698;2022-07-23T01:49:12;2.13;;;1.10;;
32641;SDS011;19323;56.072;9.698;2022-07-23T01:51:39;2.10;;;1.00;;
32641;SDS011;19323;56.072;9.698;2022-07-23T01:54:26;2.17;;;0.98;;
32641;SDS011;19323;56.072;9.698;2022-07-23T01:56:53;2.63;;;1.00;;
32641;SDS011;19323;56.072;9.698;2022-07-23T01:59:21;2.42;;;1.00;;
32641;SDS011;19323;56.072;9.698;2022-07-23T02:01:47;4.20;;;1.20;;
32641;SDS011;19323;56.072;9.698;2022-07-23T02:04:17;2.25;;;0.98;;
32641;SDS011;19323;56.072;9.698;2022-07-23T02:06:44;3.13;;;0.80;;
32641;SDS011;19323;56.072;9.698;2022-07-23T02:09:11;2.25;;;1.05;;
32641;SDS011;19323;56.072;9.698;2022-07-23T02:11:38;1.35;;;0.80;;
32641;SDS011;19323;56.072;9.698;2022-07-23T02:14:04;1.35;;;0.77;;
32641;SDS011;19323;56.072;9.698;2022-07-23T02:16:32;2.17;;;0.65;;
32641;SDS011;19323;56.072;9.698;2022-07-23T02:18:59;3.40;;;0.90;;
32641;SDS011;19323;56.072;9.698;2022-07-23T02:21:26;1.70;;;0.90;;
32641;SDS011;19323;56.072;9.698;2022-07-23T02:23:53;2.90;;;0.95;;
32641;SDS011;19323;56.072;9.698;2022-07-23T02:26:19;1.80;;;0.70;;
32641;SDS011;19323;56.072;9.698;2022-07-23T02:28:46;1.23;;;0.77;;
32641;SDS011;19323;56.072;9.698;2022-07-23T02:31:13;1.00;;;0.75;;
32641;SDS011;19323;56.072;9.698;2022-07-23T02:33:39;1.30;;;0.65;;
32641;SDS011;19323;56.072;9.698;2022-07-23T02:36:06;1.17;;;0.50;;
32641;SDS011;19323;56.072;9.698;2022-07-23T02:38:33;3.58;;;0.80;;
32641;SDS011;19323;56.072;9.698;2022-07-23T02:40:59;0.77;;;0.45;;
32641;SDS011;19323;56.072;9.698;2022-07-23T02:43:26;1.48;;;0.93;;
32641;SDS011;19323;56.072;9.698;2022-07-23T02:45:53;2.83;;;0.68;;
32641;SDS011;19323;56.072;9.698;2022-07-23T02:48:20;0.43;;;0.30;;
32641;SDS011;19323;56.072;9.698;2022-07-23T02:50:47;1.27;;;0.30;;
32641;SDS011;19323;56.072;9.698;2022-07-23T02:53:13;1.10;;;0.47;;
32641;SDS011;19323;56.072;9.698;2022-07-23T02:55:39;1.05;;;0.40;;
32641;SDS011;19323;56.072;9.698;2022-07-23T02:58:06;1.20;;;0.50;;
32641;SDS011;19323;56.072;9.698;2022-07-23T03:00:32;1.00;;;0.52;;
32641;SDS011;19323;56.072;9.698;2022-07-23T03:02:59;1.17;;;0.47;;
32641;SDS011;19323;56.072;9.698;2022-07-23T03:05:26;0.65;;;0.40;;
32641;SDS011;19323;56.072;9.698;2022-07-23T03:07:52;1.33;;;0.47;;
32641;SDS011;19323;56.072;9.698;2022-07-23T03:10:18;1.48;;;0.50;;
32641;SDS011;19323;56.072;9.698;2022-07-23T03:12:45;0.60;;;0.40;;
32641;SDS011;19323;56.072;9.698;2022-07-23T03:15:11;1.58;;;0.60;;
32641;SDS011;19323;56.072;9.698;2022-07-23T03:17:38;0.90;;;0.30;;
32641;SDS011;19323;56.072;9.698;2022-07-23T03:20:04;1.17;;;0.45;;
32641;SDS011;19323;56.072;9.698;2022-07-23T03:22:31;1.08;;;0.47;;
32641;SDS011;19323;56.072;9.698;2022-07-23T03:24:58;0.98;;;0.30;;
32641;SDS011;19323;56.072;9.698;2022-07-23T03:27:26;0.90;;;0.32;;
32641;SDS011;19323;56.072;9.698;2022-07-23T03:29:56;0.98;;;0.55;;
32641;SDS011;19323;56.072;9.698;2022-07-23T03:32:25;1.15;;;0.25;;
32641;SDS011;19323;56.072;9.698;2022-07-23T03:34:52;0.90;;;0.40;;
32641;SDS011;19323;56.072;9.698;2022-07-23T03:37:20;1.92;;;0.52;;
32641;SDS011;19323;56.072;9.698;2022-07-23T03:39:47;0.63;;;0.32;;
32641;SDS011;19323;56.072;9.698;2022-07-23T03:42:13;1.38;;;0.57;;
32641;SDS011;19323;56.072;9.698;2022-07-23T03:44:40;0.77;;;0.40;;
32641;SDS011;19323;56.072;9.698;2022-07-23T03:47:06;1.30;;;0.50;;
32641;SDS011;19323;56.072;9.698;2022-07-23T03:49:34;0.20;;;0.20;;
32641;SDS011;19323;56.072;9.698;2022-07-23T03:52:00;1.88;;;0.40;;
32641;SDS011;19323;56.072;9.698;2022-07-23T03:54:27;0.90;;;0.40;;
32641;SDS011;19323;56.072;9.698;2022-07-23T03:56:54;2.28;;;0.50;;
32641;SDS011;19323;56.072;9.698;2022-07-23T03:59:20;0.85;;;0.40;;
32641;SDS011;19323;56.072;9.698;2022-07-23T04:01:49;1.75;;;0.43;;
32641;SDS011;19323;56.072;9.698;2022-07-23T04:04:16;1.10;;;0.80;;
32641;SDS011;19323;56.072;9.698;2022-07-23T04:06:43;1.02;;;0.30;;
32641;SDS011;19323;56.072;9.698;2022-07-23T04:09:09;1.20;;;0.52;;
32641;SDS011;19323;56.072;9.698;2022-07-23T04:11:36;0.30;;;0.20;;
32641;SDS011;19323;56.072;9.698;2022-07-23T04:14:02;1.00;;;0.40;;
32641;SDS011;19323;56.072;9.698;2022-07-23T04:16:29;0.80;;;0.50;;
32641;SDS011;19323;56.072;9.698;2022-07-23T04:18:57;2.28;;;0.40;;
32641;SDS011;19323;56.072;9.698;2022-07-23T04:21:24;2.20;;;0.50;;
32641;SDS011;19323;56.072;9.698;2022-07-23T04:23:51;2.53;;;0.40;;
32641;SDS011;19323;56.072;9.698;2022-07-23T04:26:17;1.33;;;0.57;;
32641;SDS011;19323;56.072;9.698;2022-07-23T04:28:44;0.55;;;0.40;;
32641;SDS011;19323;56.072;9.698;2022-07-23T04:31:11;0.90;;;0.60;;
32641;SDS011;19323;56.072;9.698;2022-07-23T04:33:37;0.47;;;0.30;;
32641;SDS011;19323;56.072;9.698;2022-07-23T04:36:04;1.90;;;0.50;;
32641;SDS011;19323;56.072;9.698;2022-07-23T04:38:31;2.38;;;0.45;;
32641;SDS011;19323;56.072;9.698;2022-07-23T04:40:58;1.08;;;0.40;;
32641;SDS011;19323;56.072;9.698;2022-07-23T04:43:25;4.50;;;0.35;;
32641;SDS011;19323;56.072;9.698;2022-07-23T04:45:53;1.90;;;0.50;;
32641;SDS011;19323;56.072;9.698;2022-07-23T04:48:19;0.82;;;0.32;;
32641;SDS011;19323;56.072;9.698;2022-07-23T04:50:46;1.50;;;0.40;;
32641;SDS011;19323;56.072;9.698;2022-07-23T04:53:12;3.60;;;0.57;;
32641;SDS011;19323;56.072;9.698;2022-07-23T04:55:39;2.42;;;0.63;;
32641;SDS011;19323;56.072;9.698;2022-07-23T04:58:05;1.33;;;0.28;;
32641;SDS011;19323;56.072;9.698;2022-07-23T05:00:32;2.42;;;0.50;;
32641;SDS011;19323;56.072;9.698;2022-07-23T05:02:59;2.50;;;0.60;;
32641;SDS011;19323;56.072;9.698;2022-07-23T05:05:25;2.08;;;0.50;;
32641;SDS011;19323;56.072;9.698;2022-07-23T05:07:52;3.30;;;0.60;;
32641;SDS011;19323;56.072;9.698;2022-07-23T05:10:18;2.10;;;0.28;;
32641;SDS011;19323;56.072;9.698;2022-07-23T05:12:45;0.90;;;0.30;;
32641;SDS011;19323;56.072;9.698;2022-07-23T05:15:11;3.35;;;0.75;;
32641;SDS011;19323;56.072;9.698;2022-07-23T05:17:38;1.20;;;0.47;;
32641;SDS011;19323;56.072;9.698;2022-07-23T05:20:04;2.95;;;0.43;;
32641;SDS011;19323;56.072;9.698;2022-07-23T05:22:34;1.02;;;0.28;;
32641;SDS011;19323;56.072;9.698;2022-07-23T05:25:01;1.45;;;0.35;;
32641;SDS011;19323;56.072;9.698;2022-07-23T05:27:27;1.83;;;0.30;;
32641;SDS011;19323;56.072;9.698;2022-07-23T05:29:54;0.57;;;0.30;;
32641;SDS011;19323;56.072;9.698;2022-07-23T05:32:20;1.75;;;0.40;;
32641;SDS011;19323;56.072;9.698;2022-07-23T05:34:47;1.08;;;0.40;;
32641;SDS011;19323;56.072;9.698;2022-07-23T05:37:13;2.72;;;0.52;;
32641;SDS011;19323;56.072;9.698;2022-07-23T05:39:40;2.33;;;0.40;;
32641;SDS011;19323;56.072;9.698;2022-07-23T05:42:06;1.58;;;0.38;;
32641;SDS011;19323;56.072;9.698;2022-07-23T05:44:33;1.05;;;0.40;;
32641;SDS011;19323;56.072;9.698;2022-07-23T05:47:00;1.33;;;0.28;;
32641;SDS011;19323;56.072;9.698;2022-07-23T05:49:27;1.38;;;0.30;;
32641;SDS011;19323;56.072;9.698;2022-07-23T05:51:54;4.00;;;0.50;;
32641;SDS011;19323;56.072;9.698;2022-07-23T05:54:20;1.63;;;0.38;;
32641;SDS011;19323;56.072;9.698;2022-07-23T05:56:47;2.45;;;0.60;;
32641;SDS011;19323;56.072;9.698;2022-07-23T05:59:13;5.45;;;0.57;;
32641;SDS011;19323;56.072;9.698;2022-07-23T06:01:41;1.15;;;0.30;;
32641;SDS011;19323;56.072;9.698;2022-07-23T06:04:08;1.42;;;0.40;;
32641;SDS011;19323;56.072;9.698;2022-07-23T06:06:34;0.88;;;0.35;;
32641;SDS011;19323;56.072;9.698;2022-07-23T06:09:01;1.75;;;0.30;;
32641;SDS011;19323;56.072;9.698;2022-07-23T06:11:29;0.73;;;0.10;;
32641;SDS011;19323;56.072;9.698;2022-07-23T06:13:55;1.00;;;0.30;;
32641;SDS011;19323;56.072;9.698;2022-07-23T06:16:22;1.25;;;0.30;;
32641;SDS011;19323;56.072;9.698;2022-07-23T06:18:51;1.13;;;0.38;;
32641;SDS011;19323;56.072;9.698;2022-07-23T06:21:18;5.47;;;0.30;;
32641;SDS011;19323;56.072;9.698;2022-07-23T06:24:04;0.95;;;0.30;;
32641;SDS011;19323;56.072;9.698;2022-07-23T06:26:31;3.03;;;0.47;;
32641;SDS011;19323;56.072;9.698;2022-07-23T06:28:58;1.63;;;0.22;;
32641;SDS011;19323;56.072;9.698;2022-07-23T06:31:25;1.02;;;0.43;;
32641;SDS011;19323;56.072;9.698;2022-07-23T06:33:51;1.98;;;0.60;;
32641;SDS011;19323;56.072;9.698;2022-07-23T06:36:18;0.60;;;0.30;;
32641;SDS011;19323;56.072;9.698;2022-07-23T06:38:45;0.85;;;0.20;;
32641;SDS011;19323;56.072;9.698;2022-07-23T06:41:13;0.60;;;0.20;;
32641;SDS011;19323;56.072;9.698;2022-07-23T06:43:40;0.47;;;0.20;;
32641;SDS011;19323;56.072;9.698;2022-07-23T06:46:06;2.60;;;0.30;;
32641;SDS011;19323;56.072;9.698;2022-07-23T06:48:33;3.80;;;0.57;;
32641;SDS011;19323;56.072;9.698;2022-07-23T06:51:02;3.80;;;0.35;;
32641;SDS011;19323;56.072;9.698;2022-07-23T06:53:29;2.45;;;0.20;;
32641;SDS011;19323;56.072;9.698;2022-07-23T06:55:55;1.00;;;0.35;;
32641;SDS011;19323;56.072;9.698;2022-07-23T06:58:22;4.07;;;0.30;;
32641;SDS011;19323;56.072;9.698;2022-07-23T07:00:48;0.47;;;0.22;;
32641;SDS011;19323;56.072;9.698;2022-07-23T07:03:16;0.40;;;0.20;;
32641;SDS011;19323;56.072;9.698;2022-07-23T07:05:43;2.97;;;0.28;;
32641;SDS011;19323;56.072;9.698;2022-07-23T07:08:09;0.52;;;0.10;;
32641;SDS011;19323;56.072;9.698;2022-07-23T07:10:36;0.70;;;0.30;;
32641;SDS011;19323;56.072;9.698;2022-07-23T07:13:02;1.02;;;0.20;;
32641;SDS011;19323;56.072;9.698;2022-07-23T07:15:29;1.67;;;0.20;;
32641;SDS011;19323;56.072;9.698;2022-07-23T07:17:55;1.35;;;0.30;;
32641;SDS011;19323;56.072;9.698;2022-07-23T07:20:22;1.67;;;0.30;;
32641;SDS011;19323;56.072;9.698;2022-07-23T07:22:49;5.32;;;0.70;;
32641;SDS011;19323;56.072;9.698;2022-07-23T07:25:16;3.00;;;0.68;;
32641;SDS011;19323;56.072;9.698;2022-07-23T07:27:42;4.95;;;0.70;;
32641;SDS011;19323;56.072;9.698;2022-07-23T07:30:10;3.40;;;0.50;;
32641;SDS011;19323;56.072;9.698;2022-07-23T07:32:37;3.38;;;0.60;;
32641;SDS011;19323;56.072;9.698;2022-07-23T07:37:48;3.60;;;0.50;;
32641;SDS011;19323;56.072;9.698;2022-07-23T07:40:14;1.98;;;0.65;;
32641;SDS011;19323;56.072;9.698;2022-07-23T07:42:45;2.15;;;0.60;;
32641;SDS011;19323;56.072;9.698;2022-07-23T07:45:15;1.98;;;0.20;;
32641;SDS011;19323;56.072;9.698;2022-07-23T07:47:42;1.20;;;0.28;;
32641;SDS011;19323;56.072;9.698;2022-07-23T07:50:09;1.77;;;0.30;;
32641;SDS011;19323;56.072;9.698;2022-07-23T07:52:38;2.35;;;0.30;;
32641;SDS011;19323;56.072;9.698;2022-07-23T07:55:05;4.95;;;0.43;;
32641;SDS011;19323;56.072;9.698;2022-07-23T07:57:34;1.48;;;0.32;;
32641;SDS011;19323;56.072;9.698;2022-07-23T08:00:02;2.17;;;0.80;;
32641;SDS011;19323;56.072;9.698;2022-07-23T08:02:40;1.77;;;0.40;;
32641;SDS011;19323;56.072;9.698;2022-07-23T08:05:07;3.70;;;0.60;;
32641;SDS011;19323;56.072;9.698;2022-07-23T08:07:34;6.43;;;0.60;;
32641;SDS011;19323;56.072;9.698;2022-07-23T08:10:01;4.07;;;1.20;;
32641;SDS011;19323;56.072;9.698;2022-07-23T08:12:28;2.83;;;0.57;;
32641;SDS011;19323;56.072;9.698;2022-07-23T08:14:54;1.73;;;0.50;;
32641;SDS011;19323;56.072;9.698;2022-07-23T08:17:21;5.85;;;1.45;;
32641;SDS011;19323;56.072;9.698;2022-07-23T08:19:47;4.18;;;1.40;;
32641;SDS011;19323;56.072;9.698;2022-07-23T08:22:14;2.88;;;1.20;;
32641;SDS011;19323;56.072;9.698;2022-07-23T08:24:40;5.88;;;1.25;;
32641;SDS011;19323;56.072;9.698;2022-07-23T08:27:07;3.13;;;1.30;;
32641;SDS011;19323;56.072;9.698;2022-07-23T08:29:33;6.63;;;1.33;;
32641;SDS011;19323;56.072;9.698;2022-07-23T08:31:59;4.97;;;1.45;;
32641;SDS011;19323;56.072;9.698;2022-07-23T08:34:46;4.32;;;0.90;;
32641;SDS011;19323;56.072;9.698;2022-07-23T08:37:12;2.70;;;0.88;;
32641;SDS011;19323;56.072;9.698;2022-07-23T08:39:39;3.65;;;1.23;;
32641;SDS011;19323;56.072;9.698;2022-07-23T08:42:06;5.20;;;1.73;;
32641;SDS011;19323;56.072;9.698;2022-07-23T08:44:34;8.52;;;1.80;;
32641;SDS011;19323;56.072;9.698;2022-07-23T08:47:01;8.52;;;2.45;;
32641;SDS011;19323;56.072;9.698;2022-07-23T08:49:29;8.45;;;2.90;;
32641;SDS011;19323;56.072;9.698;2022-07-23T08:51:55;9.13;;;3.45;;
32641;SDS011;19323;56.072;9.698;2022-07-23T08:54:22;7.63;;;3.05;;
32641;SDS011;19323;56.072;9.698;2022-07-23T08:56:49;9.63;;;3.22;;
32641;SDS011;19323;56.072;9.698;2022-07-23T08:59:15;4.78;;;2.13;;
32641;SDS011;19323;56.072;9.698;2022-07-23T09:01:42;4.93;;;2.17;;
32641;SDS011;19323;56.072;9.698;2022-07-23T09:04:10;3.20;;;1.42;;
32641;SDS011;19323;56.072;9.698;2022-07-23T09:06:38;5.60;;;1.73;;
32641;SDS011;19323;56.072;9.698;2022-07-23T09:09:18;4.15;;;1.40;;
32641;SDS011;19323;56.072;9.698;2022-07-23T09:11:47;10.48;;;1.27;;
32641;SDS011;19323;56.072;9.698;2022-07-23T09:14:14;3.88;;;0.95;;
32641;SDS011;19323;56.072;9.698;2022-07-23T09:16:40;7.03;;;1.20;;
32641;SDS011;19323;56.072;9.698;2022-07-23T09:19:07;5.60;;;1.00;;
32641;SDS011;19323;56.072;9.698;2022-07-23T09:21:34;1.60;;;0.57;;
32641;SDS011;19323;56.072;9.698;2022-07-23T09:24:03;2.33;;;0.60;;
32641;SDS011;19323;56.072;9.698;2022-07-23T09:26:41;1.60;;;0.77;;
32641;SDS011;19323;56.072;9.698;2022-07-23T09:29:25;1.98;;;0.50;;
32641;SDS011;19323;56.072;9.698;2022-07-23T09:31:56;2.55;;;1.13;;
32641;SDS011;19323;56.072;9.698;2022-07-23T09:34:29;3.35;;;0.60;;
32641;SDS011;19323;56.072;9.698;2022-07-23T09:37:12;3.15;;;1.10;;
32641;SDS011;19323;56.072;9.698;2022-07-23T09:39:40;1.85;;;0.52;;
32641;SDS011;19323;56.072;9.698;2022-07-23T09:44:51;1.45;;;0.60;;
32641;SDS011;19323;56.072;9.698;2022-07-23T09:47:19;2.05;;;1.00;;
32641;SDS011;19323;56.072;9.698;2022-07-23T09:52:35;2.50;;;0.88;;
32641;SDS011;19323;56.072;9.698;2022-07-23T09:55:08;1.27;;;0.55;;
32641;SDS011;19323;56.072;9.698;2022-07-23T09:57:35;0.82;;;0.22;;
32641;SDS011;19323;56.072;9.698;2022-07-23T10:00:04;2.45;;;0.95;;
32641;SDS011;19323;56.072;9.698;2022-07-23T10:02:33;1.52;;;0.52;;
32641;SDS011;19323;56.072;9.698;2022-07-23T10:05:01;3.47;;;0.50;;
32641;SDS011;19323;56.072;9.698;2022-07-23T10:07:30;2.35;;;0.68;;
32641;SDS011;19323;56.072;9.698;2022-07-23T10:10:00;1.48;;;0.40;;
32641;SDS011;19323;56.072;9.698;2022-07-23T10:12:28;3.25;;;0.40;;
32641;SDS011;19323;56.072;9.698;2022-07-23T10:15:12;0.52;;;0.30;;
32641;SDS011;19323;56.072;9.698;2022-07-23T10:17:39;3.92;;;0.60;;
32641;SDS011;19323;56.072;9.698;2022-07-23T10:20:06;1.92;;;0.30;;
32641;SDS011;19323;56.072;9.698;2022-07-23T10:22:37;1.60;;;0.52;;
32641;SDS011;19323;56.072;9.698;2022-07-23T10:25:18;0.60;;;0.30;;
32641;SDS011;19323;56.072;9.698;2022-07-23T10:30:36;1.30;;;0.68;;
32641;SDS011;19323;56.072;9.698;2022-07-23T10:33:30;0.55;;;0.20;;
32641;SDS011;19323;56.072;9.698;2022-07-23T10:36:09;1.55;;;0.20;;
32641;SDS011;19323;56.072;9.698;2022-07-23T10:41:41;2.38;;;0.57;;
32641;SDS011;19323;56.072;9.698;2022-07-23T10:44:18;0.35;;;0.25;;
32641;SDS011;19323;56.072;9.698;2022-07-23T10:49:35;2.30;;;0.32;;
32641;SDS011;19323;56.072;9.698;2022-07-23T10:54:41;0.57;;;0.28;;
32641;SDS011;19323;56.072;9.698;2022-07-23T10:57:09;0.22;;;0.20;;
32641;SDS011;19323;56.072;9.698;2022-07-23T11:02:38;0.73;;;0.30;;
32641;SDS011;19323;56.072;9.698;2022-07-23T11:07:35;1.55;;;0.15;;
32641;SDS011;19323;56.072;9.698;2022-07-23T11:10:03;0.10;;;0.10;;
32641;SDS011;19323;56.072;9.698;2022-07-23T11:17:29;0.57;;;0.10;;
32641;SDS011;19323;56.072;9.698;2022-07-23T11:22:36;1.30;;;0.20;;
32641;SDS011;19323;56.072;9.698;2022-07-23T11:25:33;1.55;;;0.57;;
32641;SDS011;19323;56.072;9.698;2022-07-23T11:28:16;2.05;;;0.15;;
32641;SDS011;19323;56.072;9.698;2022-07-23T11:30:47;3.60;;;0.33;;
32641;SDS011;19323;56.072;9.698;2022-07-23T11:35:41;2.42;;;0.50;;
32641;SDS011;19323;56.072;9.698;2022-07-23T11:38:13;1.20;;;0.70;;
32641;SDS011;19323;56.072;9.698;2022-07-23T11:40:44;5.30;;;0.65;;
32641;SDS011;19323;56.072;9.698;2022-07-23T11:43:13;4.30;;;0.85;;
32641;SDS011;19323;56.072;9.698;2022-07-23T11:45:41;6.55;;;0.40;;
32641;SDS011;19323;56.072;9.698;2022-07-23T11:48:30;2.83;;;0.50;;
32641;SDS011;19323;56.072;9.698;2022-07-23T11:51:01;8.65;;;0.75;;
32641;SDS011;19323;56.072;9.698;2022-07-23T11:53:28;6.43;;;0.43;;
32641;SDS011;19323;56.072;9.698;2022-07-23T11:56:07;3.78;;;0.65;;
32641;SDS011;19323;56.072;9.698;2022-07-23T11:58:36;5.50;;;0.50;;
32641;SDS011;19323;56.072;9.698;2022-07-23T12:01:04;3.25;;;0.70;;
32641;SDS011;19323;56.072;9.698;2022-07-23T12:03:31;4.10;;;0.75;;
32641;SDS011;19323;56.072;9.698;2022-07-23T12:05:58;4.28;;;0.68;;
32641;SDS011;19323;56.072;9.698;2022-07-23T12:08:25;7.47;;;1.23;;
32641;SDS011;19323;56.072;9.698;2022-07-23T12:10:52;4.85;;;0.52;;
32641;SDS011;19323;56.072;9.698;2022-07-23T12:13:19;5.82;;;0.85;;
32641;SDS011;19323;56.072;9.698;2022-07-23T12:15:49;5.13;;;0.70;;
32641;SDS011;19323;56.072;9.698;2022-07-23T12:18:18;3.85;;;0.80;;
32641;SDS011;19323;56.072;9.698;2022-07-23T12:20:48;11.60;;;1.48;;
32641;SDS011;19323;56.072;9.698;2022-07-23T12:23:18;4.07;;;0.43;;
32641;SDS011;19323;56.072;9.698;2022-07-23T12:25:47;2.40;;;0.75;;
32641;SDS011;19323;56.072;9.698;2022-07-23T12:28:18;2.67;;;0.40;;
32641;SDS011;19323;56.072;9.698;2022-07-23T12:30:53;3.05;;;0.57;;
32641;SDS011;19323;56.072;9.698;2022-07-23T12:33:22;4.18;;;0.70;;
32641;SDS011;19323;56.072;9.698;2022-07-23T12:35:51;2.00;;;0.50;;
32641;SDS011;19323;56.072;9.698;2022-07-23T12:38:23;2.53;;;0.50;;
32641;SDS011;19323;56.072;9.698;2022-07-23T12:40:55;2.85;;;0.60;;
32641;SDS011;19323;56.072;9.698;2022-07-23T12:45:51;3.15;;;0.63;;
32641;SDS011;19323;56.072;9.698;2022-07-23T12:48:20;2.17;;;0.30;;
32641;SDS011;19323;56.072;9.698;2022-07-23T12:50:49;1.80;;;0.47;;
32641;SDS011;19323;56.072;9.698;2022-07-23T12:53:31;3.70;;;0.30;;
32641;SDS011;19323;56.072;9.698;2022-07-23T12:56:06;1.27;;;0.22;;
32641;SDS011;19323;56.072;9.698;2022-07-23T12:58:42;3.10;;;0.57;;
32641;SDS011;19323;56.072;9.698;2022-07-23T13:06:42;2.78;;;0.40;;
32641;SDS011;19323;56.072;9.698;2022-07-23T13:09:24;1.75;;;0.40;;
32641;SDS011;19323;56.072;9.698;2022-07-23T13:11:57;2.40;;;0.30;;
32641;SDS011;19323;56.072;9.698;2022-07-23T13:14:25;0.82;;;0.35;;
32641;SDS011;19323;56.072;9.698;2022-07-23T13:16:52;0.52;;;0.25;;
32641;SDS011;19323;56.072;9.698;2022-07-23T13:19:22;2.42;;;0.38;;
32641;SDS011;19323;56.072;9.698;2022-07-23T13:21:50;1.00;;;0.40;;
32641;SDS011;19323;56.072;9.698;2022-07-23T13:24:17;1.73;;;0.28;;
32641;SDS011;19323;56.072;9.698;2022-07-23T13:26:45;0.68;;;0.30;;
32641;SDS011;19323;56.072;9.698;2022-07-23T13:29:13;3.30;;;0.47;;
32641;SDS011;19323;56.072;9.698;2022-07-23T13:31:42;1.40;;;0.32;;
32641;SDS011;19323;56.072;9.698;2022-07-23T13:34:11;0.52;;;0.40;;
32641;SDS011;19323;56.072;9.698;2022-07-23T13:36:38;0.80;;;0.30;;
32641;SDS011;19323;56.072;9.698;2022-07-23T13:39:04;1.48;;;0.30;;
32641;SDS011;19323;56.072;9.698;2022-07-23T13:41:34;1.85;;;0.10;;
32641;SDS011;19323;56.072;9.698;2022-07-23T13:44:01;0.63;;;0.30;;
32641;SDS011;19323;56.072;9.698;2022-07-23T13:46:28;0.25;;;0.10;;
32641;SDS011;19323;56.072;9.698;2022-07-23T13:48:55;0.77;;;0.20;;
32641;SDS011;19323;56.072;9.698;2022-07-23T13:51:21;1.23;;;0.30;;
32641;SDS011;19323;56.072;9.698;2022-07-23T13:53:51;0.65;;;0.35;;
32641;SDS011;19323;56.072;9.698;2022-07-23T13:56:18;1.58;;;0.40;;
32641;SDS011;19323;56.072;9.698;2022-07-23T13:58:45;2.15;;;0.20;;
32641;SDS011;19323;56.072;9.698;2022-07-23T14:01:11;0.20;;;0.10;;
32641;SDS011;19323;56.072;9.698;2022-07-23T14:03:38;0.32;;;0.10;;
32641;SDS011;19323;56.072;9.698;2022-07-23T14:06:05;0.95;;;0.28;;
32641;SDS011;19323;56.072;9.698;2022-07-23T14:08:41;0.57;;;0.10;;
32641;SDS011;19323;56.072;9.698;2022-07-23T14:11:10;1.17;;;0.20;;
32641;SDS011;19323;56.072;9.698;2022-07-23T14:13:37;0.93;;;0.52;;
32641;SDS011;19323;56.072;9.698;2022-07-23T14:16:04;0.55;;;0.30;;
32641;SDS011;19323;56.072;9.698;2022-07-23T14:18:31;0.68;;;0.20;;
32641;SDS011;19323;56.072;9.698;2022-07-23T14:20:59;2.10;;;0.20;;
32641;SDS011;19323;56.072;9.698;2022-07-23T14:23:27;0.95;;;0.20;;
32641;SDS011;19323;56.072;9.698;2022-07-23T14:25:53;0.68;;;0.30;;
32641;SDS011;19323;56.072;9.698;2022-07-23T14:28:20;1.33;;;0.17;;
32641;SDS011;19323;56.072;9.698;2022-07-23T14:30:47;0.40;;;0.20;;
32641;SDS011;19323;56.072;9.698;2022-07-23T14:33:14;0.88;;;0.30;;
32641;SDS011;19323;56.072;9.698;2022-07-23T14:35:42;0.90;;;0.22;;
32641;SDS011;19323;56.072;9.698;2022-07-23T14:38:09;0.40;;;0.10;;
32641;SDS011;19323;56.072;9.698;2022-07-23T14:40:39;0.95;;;0.20;;
32641;SDS011;19323;56.072;9.698;2022-07-23T14:43:06;1.27;;;0.30;;
32641;SDS011;19323;56.072;9.698;2022-07-23T14:45:36;0.63;;;0.10;;
32641;SDS011;19323;56.072;9.698;2022-07-23T14:48:02;1.17;;;0.45;;
32641;SDS011;19323;56.072;9.698;2022-07-23T14:50:29;0.40;;;0.30;;
32641;SDS011;19323;56.072;9.698;2022-07-23T14:52:56;1.85;;;0.22;;
32641;SDS011;19323;56.072;9.698;2022-07-23T14:55:23;2.42;;;0.30;;
32641;SDS011;19323;56.072;9.698;2022-07-23T14:57:50;1.02;;;0.40;;
32641;SDS011;19323;56.072;9.698;2022-07-23T15:00:16;1.40;;;0.40;;
32641;SDS011;19323;56.072;9.698;2022-07-23T15:02:49;1.88;;;0.43;;
32641;SDS011;19323;56.072;9.698;2022-07-23T15:05:20;1.65;;;0.43;;
32641;SDS011;19323;56.072;9.698;2022-07-23T15:07:46;1.50;;;0.40;;
32641;SDS011;19323;56.072;9.698;2022-07-23T15:10:13;1.55;;;0.65;;
32641;SDS011;19323;56.072;9.698;2022-07-23T15:12:40;2.33;;;0.50;;
32641;SDS011;19323;56.072;9.698;2022-07-23T15:15:06;2.40;;;0.63;;
32641;SDS011;19323;56.072;9.698;2022-07-23T15:17:35;3.67;;;0.70;;
32641;SDS011;19323;56.072;9.698;2022-07-23T15:20:02;2.70;;;0.80;;
32641;SDS011;19323;56.072;9.698;2022-07-23T15:22:29;5.40;;;0.73;;
32641;SDS011;19323;56.072;9.698;2022-07-23T15:24:55;2.03;;;0.60;;
32641;SDS011;19323;56.072;9.698;2022-07-23T15:27:23;1.25;;;0.45;;
32641;SDS011;19323;56.072;9.698;2022-07-23T15:29:50;2.92;;;0.63;;
32641;SDS011;19323;56.072;9.698;2022-07-23T15:32:17;4.13;;;1.05;;
32641;SDS011;19323;56.072;9.698;2022-07-23T15:34:43;5.05;;;0.80;;
32641;SDS011;19323;56.072;9.698;2022-07-23T15:37:10;2.05;;;0.80;;